createdAt,value
2023-01-17T00:02:42.222Z,0.25
2023-01-17T00:05:12.120Z,0.26
2023-01-17T00:07:42.147Z,0.19
2023-01-17T00:10:12.169Z,0.22
2023-01-17T00:12:42.203Z,0.46
2023-01-17T00:20:12.265Z,0.26
2023-01-17T00:22:42.276Z,0.28
2023-01-17T00:25:12.315Z,0.48
2023-01-17T00:27:42.334Z,0.4
2023-01-17T00:32:42.396Z,0.49
2023-01-17T00:35:12.389Z,0.52
2023-01-17T00:37:42.414Z,0.54
2023-01-17T00:42:42.469Z,0.36
2023-01-17T00:45:12.498Z,0.6
2023-01-17T00:47:42.526Z,0.68
2023-01-17T00:50:12.550Z,0.47
2023-01-17T00:55:12.622Z,0.98
2023-01-17T00:57:42.612Z,0.78
2023-01-17T01:00:12.644Z,0.61
2023-01-17T01:02:42.819Z,0.43
2023-01-17T01:05:12.703Z,0.32
2023-01-17T01:07:42.698Z,0.3
2023-01-17T01:10:12.750Z,0.3
2023-01-17T01:15:12.786Z,1.48
2023-01-17T01:17:42.828Z,0.95
2023-01-17T01:25:12.903Z,0.31
2023-01-17T01:32:42.953Z,0.34
2023-01-17T01:35:13.005Z,0.31
2023-01-17T01:37:43.012Z,0.31
2023-01-17T01:42:43.051Z,0.19
2023-01-17T01:47:43.078Z,0.28
2023-01-17T01:50:13.125Z,0.35
2023-01-17T01:55:13.157Z,0.26
2023-01-17T01:57:43.203Z,0.29
2023-01-17T02:00:13.216Z,0.3
2023-01-17T02:02:43.230Z,0.28
2023-01-17T02:05:13.259Z,0.32
2023-01-17T02:07:43.290Z,0.3
2023-01-17T02:12:43.337Z,0.23
2023-01-17T02:17:43.399Z,0.37
2023-01-17T02:22:43.415Z,0.32
2023-01-17T02:25:13.469Z,0.33
2023-01-17T02:30:13.852Z,0.17
2023-01-17T02:37:43.588Z,0.18
2023-01-17T02:42:43.618Z,0.21
2023-01-17T02:45:13.650Z,0.17
2023-01-17T02:47:43.655Z,0.22
2023-01-17T02:50:13.751Z,0.17
2023-01-17T02:55:13.743Z,0.22
2023-01-17T02:57:43.773Z,0.22
2023-01-17T03:02:43.852Z,0.42
2023-01-17T03:05:13.840Z,0.29
2023-01-17T03:07:43.849Z,0.25
2023-01-17T03:15:13.920Z,0.36
2023-01-17T03:17:43.958Z,0.32
2023-01-17T03:20:13.989Z,0.36
2023-01-17T03:22:44.010Z,0.35
2023-01-17T03:25:14.031Z,0.42
2023-01-17T03:27:44.050Z,0.41
2023-01-17T03:30:14.120Z,0.3
2023-01-17T03:32:44.108Z,0.52
2023-01-17T03:37:44.167Z,0.42
2023-01-17T03:40:14.199Z,0.41
2023-01-17T03:45:14.248Z,0.53
2023-01-17T03:47:44.235Z,0.36
2023-01-17T03:52:44.288Z,0.38
2023-01-17T03:57:44.329Z,0.37
2023-01-17T04:00:14.375Z,0.42
2023-01-17T04:02:44.412Z,0.37
2023-01-17T04:05:14.406Z,0.37
2023-01-17T04:07:44.431Z,0.88
2023-01-17T04:10:14.487Z,0.74
2023-01-17T04:12:44.486Z,0.5
2023-01-17T04:17:44.543Z,1.27
2023-01-17T04:20:14.563Z,0.85
2023-01-17T04:22:44.576Z,0.57
2023-01-17T04:25:14.614Z,0.45
2023-01-17T04:30:14.661Z,0.76
2023-01-17T04:32:44.700Z,0.66
2023-01-17T04:35:14.734Z,0.81
2023-01-17T04:37:44.726Z,0.66
2023-01-17T04:40:14.733Z,1.05
2023-01-17T04:42:44.798Z,1.08
2023-01-17T04:45:14.828Z,1.15
2023-01-17T04:50:14.839Z,0.93
2023-01-17T04:52:44.885Z,0.97
2023-01-17T04:55:14.899Z,1.04
2023-01-17T04:57:44.932Z,1.18
2023-01-17T05:00:14.946Z,1.04
2023-01-17T05:02:45.010Z,1.27
2023-01-17T05:05:14.992Z,1.28
2023-01-17T05:07:45.026Z,1.2
2023-01-17T05:10:15.027Z,1.38
2023-01-17T05:12:45.059Z,1.09
2023-01-17T05:17:45.110Z,1.29
2023-01-17T05:20:15.128Z,1.39
2023-01-17T05:22:45.140Z,0.85
2023-01-17T05:25:15.191Z,0.69
2023-01-17T05:27:45.199Z,0.68
2023-01-17T05:30:15.232Z,1.39
2023-01-17T05:32:45.273Z,1.31
2023-01-17T05:35:15.273Z,0.8
2023-01-17T05:37:45.299Z,0.68
2023-01-17T05:40:15.334Z,0.52
2023-01-17T05:42:45.335Z,0.67
2023-01-17T05:45:15.381Z,0.5
2023-01-17T05:50:15.427Z,0.52
2023-01-17T05:52:45.468Z,0.46
2023-01-17T05:55:15.477Z,0.49
2023-01-17T05:57:45.496Z,0.56
2023-01-17T06:00:15.515Z,0.45
2023-01-17T06:02:45.661Z,0.57
2023-01-17T06:05:15.576Z,0.55
2023-01-17T06:07:45.595Z,0.91
2023-01-17T06:10:15.627Z,1.08
2023-01-17T06:15:15.656Z,0.95
2023-01-17T06:17:45.702Z,0.9
2023-01-17T06:20:15.715Z,0.84
2023-01-17T06:22:45.746Z,0.73
2023-01-17T06:25:15.774Z,0.75
2023-01-17T06:30:15.801Z,0.8
2023-01-17T06:32:45.843Z,1.18
2023-01-17T06:35:15.854Z,1.37
2023-01-17T06:40:15.917Z,1.36
2023-01-17T06:42:46.301Z,1.5
2023-01-17T06:45:15.965Z,1.63
2023-01-17T06:47:45.963Z,1.54
2023-01-17T06:50:16.002Z,1.64
2023-01-17T06:52:46.021Z,1.84
2023-01-17T06:55:16.034Z,1.8
2023-01-17T06:57:46.104Z,2.31
2023-01-17T07:00:16.116Z,2.28
2023-01-17T07:02:46.112Z,1.73
2023-01-17T07:05:16.196Z,1.95
2023-01-17T07:07:46.160Z,1.9
2023-01-17T07:10:16.274Z,2.09
2023-01-17T07:12:46.212Z,2.76
2023-01-17T07:15:16.224Z,2.47
2023-01-17T07:20:16.291Z,2.5
2023-01-17T07:22:46.326Z,1.83
2023-01-17T07:25:16.392Z,2.03
2023-01-17T07:27:46.354Z,1.97
2023-01-17T07:30:16.394Z,2.16
2023-01-17T07:35:16.435Z,3.05
2023-01-17T07:37:46.459Z,2.66
2023-01-17T07:42:46.494Z,2.43
2023-01-17T07:45:16.544Z,3.24
2023-01-17T07:47:46.560Z,3.94
2023-01-17T07:50:16.594Z,3.16
2023-01-17T07:52:46.616Z,2.95
2023-01-17T08:00:16.671Z,2.55
2023-01-17T08:02:46.710Z,2.66
2023-01-17T08:07:46.731Z,2.12
2023-01-17T08:10:16.776Z,2.03
2023-01-17T08:12:46.808Z,2.85
2023-01-17T08:15:16.802Z,2.25
2023-01-17T08:17:46.856Z,1.92
2023-01-17T08:20:16.853Z,2.12
2023-01-17T08:22:46.900Z,3.39
2023-01-17T08:25:16.922Z,2.71
2023-01-17T08:27:46.929Z,2.3
2023-01-17T08:30:16.952Z,2.16
2023-01-17T08:32:46.985Z,1.97
2023-01-17T08:35:17.013Z,2.01
2023-01-17T08:37:47.036Z,2.07
2023-01-17T08:40:17.080Z,2.66
2023-01-17T08:42:47.089Z,1.99
2023-01-17T08:45:17.101Z,1.91
2023-01-17T08:47:47.115Z,2.19
2023-01-17T08:50:17.174Z,2.33
2023-01-17T08:52:47.183Z,2.41
2023-01-17T08:55:17.218Z,2.06
2023-01-17T08:57:47.240Z,1.77
2023-01-17T09:00:17.261Z,1.63
2023-01-17T09:02:47.287Z,2.41
2023-01-17T09:05:17.286Z,1.95
2023-01-17T09:07:47.335Z,1.56
2023-01-17T09:10:17.359Z,1.64
2023-01-17T09:12:47.377Z,1.9
2023-01-17T09:15:17.392Z,1.78
2023-01-17T09:20:17.487Z,2.22
2023-01-17T09:22:47.480Z,1.71
2023-01-17T09:25:17.504Z,2.68
2023-01-17T09:27:47.504Z,2.17
2023-01-17T09:30:17.541Z,1.77
2023-01-17T09:32:47.554Z,1.73
2023-01-17T09:35:17.598Z,1.44
2023-01-17T09:37:47.603Z,1.7
2023-01-17T09:40:17.644Z,1.83
2023-01-17T09:47:47.695Z,1.47
2023-01-17T09:52:47.745Z,1.78
2023-01-17T09:57:47.795Z,1.66
2023-01-17T10:00:17.837Z,2.99
2023-01-17T10:02:47.988Z,2.56
2023-01-17T10:05:17.866Z,3.23
2023-01-17T10:07:47.875Z,2.74
2023-01-17T10:15:17.968Z,2.42
2023-01-17T10:17:47.981Z,2.5
2023-01-17T10:20:18.024Z,1.66
2023-01-17T10:22:48.081Z,2.38
2023-01-17T10:25:18.526Z,3.53
2023-01-17T10:27:48.077Z,3
2023-01-17T10:30:18.110Z,2.7
2023-01-17T10:32:48.145Z,3.01
2023-01-17T10:37:48.174Z,2.73
2023-01-17T10:40:18.212Z,2.85
2023-01-17T10:45:18.248Z,3.96
2023-01-17T10:47:48.307Z,4.02
2023-01-17T10:50:18.329Z,3.25
2023-01-17T10:52:48.335Z,2.39
2023-01-17T10:55:18.356Z,2.53
2023-01-17T10:57:48.360Z,2.54
2023-01-17T11:02:48.494Z,2.61
2023-01-17T11:10:18.497Z,2.63
2023-01-17T11:12:48.503Z,2.44
2023-01-17T11:15:18.534Z,2.62
2023-01-17T11:17:48.577Z,3.21
2023-01-17T11:20:18.581Z,3.05
2023-01-17T11:22:48.648Z,3.4
2023-01-17T11:25:18.638Z,2.85
2023-01-17T11:27:48.675Z,2.82
2023-01-17T11:32:48.695Z,3.74
2023-01-17T11:35:18.745Z,3.4
2023-01-17T11:37:48.783Z,3.33
2023-01-17T11:40:18.795Z,2.83
2023-01-17T11:42:48.815Z,4.13
2023-01-17T11:45:18.817Z,3.59
2023-01-17T11:47:48.871Z,2.82
2023-01-17T11:50:18.858Z,2.74
2023-01-17T11:52:48.909Z,2.76
2023-01-17T12:00:18.968Z,2.7
2023-01-17T12:02:48.997Z,2.36
2023-01-17T12:05:19.062Z,2.4
2023-01-17T12:10:19.072Z,2.1
2023-01-17T12:12:49.093Z,2.17
2023-01-17T12:15:19.128Z,2.55
2023-01-17T12:17:49.156Z,2.34
2023-01-17T12:20:19.270Z,2.79
2023-01-17T12:22:49.188Z,2.57
2023-01-17T12:25:19.211Z,2.29
2023-01-17T12:27:49.222Z,2.5
2023-01-17T12:30:19.255Z,1.94
2023-01-17T12:32:49.313Z,2.19
2023-01-17T12:35:19.300Z,2.33
2023-01-17T12:38:00.269Z,2.23
2023-01-17T12:42:49.498Z,1.48
2023-01-17T12:50:19.436Z,1.7
2023-01-17T12:52:49.462Z,1.73
2023-01-17T12:55:19.525Z,1.36
2023-01-17T12:57:49.501Z,0.98
2023-01-17T13:00:19.565Z,1.67
2023-01-17T13:05:19.591Z,1.49
2023-01-17T13:07:49.626Z,1.33
2023-01-17T13:10:19.657Z,1.84
2023-01-17T13:12:49.659Z,1.52
2023-01-17T13:17:49.712Z,1.26
2023-01-17T13:20:19.725Z,1.36
2023-01-17T13:22:49.763Z,1.38
2023-01-17T13:25:19.779Z,1.39
2023-01-17T13:30:19.855Z,1.42
2023-01-17T13:32:49.845Z,1.17
2023-01-17T13:42:49.944Z,1.36
2023-01-17T13:47:50.020Z,1.3
2023-01-17T13:57:50.109Z,1.35
2023-01-17T14:00:20.114Z,1.51
2023-01-17T14:07:50.176Z,0.89
2023-01-17T14:10:20.211Z,0.75
2023-01-17T14:12:50.236Z,1.32
2023-01-17T14:15:20.246Z,0.92
2023-01-17T14:17:50.303Z,0.87
2023-01-17T14:22:50.323Z,0.42
2023-01-17T14:30:20.401Z,0.76
2023-01-17T14:37:50.463Z,0.69
2023-01-17T14:40:20.502Z,0.69
2023-01-17T14:42:50.549Z,0.81
2023-01-17T14:47:50.585Z,0.92
2023-01-17T14:50:20.602Z,0.73
2023-01-17T14:52:50.663Z,0.75
2023-01-17T14:55:20.669Z,0.74
2023-01-17T14:57:50.649Z,0.66
2023-01-17T15:00:20.701Z,0.91
2023-01-17T15:02:50.914Z,0.71
2023-01-17T15:05:20.764Z,0.67
2023-01-17T15:07:50.774Z,0.91
2023-01-17T15:10:20.786Z,0.87
2023-01-17T15:15:20.820Z,0.92
2023-01-17T15:17:50.870Z,0.75
2023-01-17T15:20:20.873Z,1.14
2023-01-17T15:22:50.901Z,1.17
2023-01-17T15:25:20.937Z,0.98
2023-01-17T15:27:50.974Z,0.84
2023-01-17T15:30:21.075Z,1.34
2023-01-17T15:32:51.007Z,1.07
2023-01-17T15:37:51.053Z,1.28
2023-01-17T15:40:21.099Z,1.03
2023-01-17T15:42:51.106Z,0.91
2023-01-17T15:50:21.199Z,1.74
2023-01-17T15:57:51.230Z,1.45
2023-01-17T16:02:51.345Z,1.74
2023-01-17T16:07:51.334Z,1.45
2023-01-17T16:10:21.441Z,1.86
2023-01-17T16:12:51.874Z,1.74
2023-01-17T16:15:21.401Z,2.21
2023-01-17T16:17:51.869Z,1.92
2023-01-17T16:20:21.459Z,2.38
2023-01-17T16:25:21.496Z,2.4
2023-01-17T16:27:51.940Z,2.98
2023-01-17T16:37:51.861Z,3
2023-01-17T16:40:21.653Z,2.28
2023-01-17T16:42:51.687Z,2.29
2023-01-17T16:45:21.698Z,2.18
2023-01-17T16:50:21.743Z,1.89
2023-01-17T16:52:51.776Z,2.74
2023-01-17T16:55:21.797Z,2.11
2023-01-17T16:57:52.135Z,3.54
2023-01-17T17:00:21.871Z,3.14
2023-01-17T17:02:51.957Z,2.54
2023-01-17T17:05:21.883Z,2.58
2023-01-17T17:07:52.010Z,2.76
2023-01-17T17:10:21.949Z,3.21
2023-01-17T17:12:51.972Z,3.4
2023-01-17T17:15:21.998Z,3.35
2023-01-17T17:17:52.248Z,2.67
2023-01-17T17:20:23.950Z,2.81
2023-01-17T17:25:22.100Z,3.02
2023-01-17T17:30:22.142Z,3.96
2023-01-17T17:32:52.176Z,3.55
2023-01-17T17:37:52.614Z,3.09
2023-01-17T17:40:22.237Z,3.77
2023-01-17T17:42:52.250Z,3.15
2023-01-17T17:45:22.280Z,3.32
2023-01-17T17:47:52.530Z,3.38
2023-01-17T17:50:22.350Z,4.2
2023-01-17T17:52:52.339Z,3.88
2023-01-17T17:57:52.721Z,3.4
2023-01-17T18:00:22.408Z,4.42
2023-01-17T18:02:52.450Z,4.11
2023-01-17T18:05:22.473Z,3.64
2023-01-17T18:07:52.721Z,3.46
2023-01-17T18:12:52.533Z,3.57
2023-01-17T18:15:22.584Z,3.35
2023-01-17T18:20:22.623Z,3.54
2023-01-17T18:22:52.638Z,3.32
2023-01-17T18:27:53.001Z,3.6
2023-01-17T18:32:52.746Z,3.42
2023-01-17T18:35:22.774Z,3.89
2023-01-17T18:37:53.117Z,3.74
2023-01-17T18:40:22.791Z,3.12
2023-01-17T18:42:53.272Z,2.94
2023-01-17T18:45:22.868Z,2.67
2023-01-17T18:50:22.909Z,3.25
2023-01-17T18:52:53.151Z,3.74
2023-01-17T18:55:22.975Z,4.1
2023-01-17T19:00:23.056Z,3.96
2023-01-17T19:02:53.017Z,3.91
2023-01-17T19:05:23.045Z,3.8
2023-01-17T19:07:53.602Z,4.53
2023-01-17T19:12:53.133Z,4.45
2023-01-17T19:15:23.146Z,3.73
2023-01-17T19:17:53.602Z,4.36
2023-01-17T19:20:23.207Z,4.74
2023-01-17T19:22:53.220Z,4.46
2023-01-17T19:25:23.242Z,4.68
2023-01-17T19:27:53.658Z,4.4
2023-01-17T19:30:23.288Z,4.23
2023-01-17T19:32:53.335Z,3.91
2023-01-17T19:35:23.346Z,3.73
2023-01-17T19:40:23.406Z,3.66
2023-01-17T19:47:53.744Z,4.01
2023-01-17T19:50:23.466Z,4.41
2023-01-17T19:52:53.502Z,3.64
2023-01-17T19:57:53.582Z,3.36
2023-01-17T20:00:29.974Z,3.54
2023-01-17T20:05:23.642Z,4.59
2023-01-17T20:07:53.758Z,3.79
2023-01-17T20:10:23.686Z,4.16
2023-01-17T20:12:53.699Z,4.58
2023-01-17T20:15:23.736Z,4.73
2023-01-17T20:17:53.764Z,4.11
2023-01-17T20:20:23.775Z,4.2
2023-01-17T20:25:23.815Z,4.57
2023-01-17T20:27:54.009Z,4.38
2023-01-17T20:30:23.885Z,4.54
2023-01-17T20:35:23.908Z,4.62
2023-01-17T20:37:54.024Z,3.8
2023-01-17T20:40:23.950Z,3.44
2023-01-17T20:47:54.462Z,3.28
2023-01-17T20:50:24.087Z,2.53
2023-01-17T21:00:24.162Z,2.43
2023-01-17T21:05:24.208Z,2.65
2023-01-17T21:07:54.369Z,2.93
2023-01-17T21:10:24.247Z,3.08
2023-01-17T21:15:24.306Z,2.89
2023-01-17T21:17:54.554Z,2.93
2023-01-17T21:20:24.375Z,2.99
2023-01-17T21:22:54.399Z,3.46
2023-01-17T21:27:54.828Z,2.94
2023-01-17T21:30:24.469Z,3.21
2023-01-17T21:32:54.469Z,3.09
2023-01-17T21:35:24.551Z,2.69
2023-01-17T21:42:54.574Z,2.68
2023-01-17T21:45:24.614Z,2.45
2023-01-17T21:47:54.785Z,2.57
2023-01-17T21:50:32.997Z,3.34
2023-01-17T21:52:54.673Z,3.59
2023-01-17T21:55:24.687Z,2.92
2023-01-17T22:00:24.735Z,3.76
2023-01-17T22:02:55.485Z,3
2023-01-17T22:05:24.819Z,3.42
2023-01-17T22:07:55.226Z,3.49
2023-01-17T22:10:24.834Z,3.6
2023-01-17T22:12:54.873Z,3.61
2023-01-17T22:15:24.891Z,3.11
2023-01-17T22:17:55.462Z,3.53
2023-01-17T22:20:24.925Z,3.45
2023-01-17T22:25:25.015Z,2.77
2023-01-17T22:27:55.569Z,3.04
2023-01-17T22:30:25.051Z,4.18
2023-01-17T22:32:55.275Z,4.28
2023-01-17T22:35:25.100Z,3.11
2023-01-17T22:40:25.135Z,2.85
2023-01-17T22:42:55.389Z,3.24
2023-01-17T22:45:25.192Z,3.92
2023-01-17T22:47:55.207Z,3.37
2023-01-17T22:50:25.225Z,3.99
2023-01-17T22:52:55.507Z,3.59
2023-01-17T22:55:25.267Z,3.27
2023-01-17T23:00:25.324Z,3.39
2023-01-17T23:02:55.823Z,3.94
2023-01-17T23:05:25.368Z,3.31
2023-01-17T23:07:55.411Z,2.6
2023-01-17T23:10:25.436Z,2.77
2023-01-17T23:12:55.862Z,2.73
2023-01-17T23:15:25.479Z,2.65
2023-01-17T23:17:55.502Z,2.45
2023-01-17T23:22:56.007Z,2.31
2023-01-17T23:27:55.603Z,2.84
2023-01-17T23:30:25.609Z,3.81
2023-01-17T23:32:55.959Z,2.91
2023-01-17T23:37:55.687Z,3.99
2023-01-17T23:40:25.705Z,3.67
2023-01-17T23:42:56.223Z,3.17
2023-01-17T23:45:25.755Z,2.9
2023-01-17T23:47:55.773Z,2.66
2023-01-17T23:50:25.804Z,2.91
2023-01-17T23:52:56.247Z,2.48
